Time;durP1;ratioP1;P1;durP2;ratioP2;P2;SDS_P1;SDS_P2;PMS_P1;PMS_P2;Temp;Humidity;BMP_temperature;BMP_pressure;BME280_temperature;BME280_humidity;BME280_pressure;Samples;Min_cycle;Max_cycle;Signal;HPM_P1;HPM_P2
2021/05/29 00:00:13;;;;;;;4.93;3.33;;;;;;;10.96;79.68;100928.59;2071896;28;20538;-61
2021/05/29 00:01:13;;;;;;;5.65;3.00;;;;;;;10.93;79.69;100930.38;2071708;28;20025;-61
2021/05/29 00:02:14;;;;;;;3.77;2.97;;;;;;;10.93;80.14;100928.63;2071588;28;20052;-61
2021/05/29 00:03:15;;;;;;;3.72;2.92;;;;;;;10.90;80.20;100924.34;2071424;28;20029;-61
2021/05/29 00:04:15;;;;;;;5.20;3.00;;;;;;;10.89;80.20;100920.03;2071264;28;20423;-62
2021/05/29 00:05:16;;;;;;;4.07;2.83;;;;;;;10.90;80.41;100921.75;2066582;28;20030;-61
2021/05/29 00:06:16;;;;;;;3.63;3.17;;;;;;;10.94;80.53;100926.88;2073166;28;20100;-61
2021/05/29 00:07:17;;;;;;;5.68;3.20;;;;;;;10.98;80.57;100920.72;2073358;28;20841;-60
2021/05/29 00:08:18;;;;;;;5.13;3.10;;;;;;;10.97;80.68;100919.84;2073054;28;20034;-60
2021/05/29 00:09:18;;;;;;;3.53;3.05;;;;;;;10.97;80.49;100925.06;2072006;28;20386;-63
2021/05/29 00:10:19;;;;;;;5.40;3.50;;;;;;;10.97;80.76;100919.00;2072560;28;20052;-61
2021/05/29 00:11:19;;;;;;;5.80;3.50;;;;;;;10.93;80.80;100917.31;2072359;28;20033;-61
2021/05/29 00:12:19;;;;;;;5.77;3.37;;;;;;;10.94;80.45;100921.66;2073098;28;20034;-61
2021/05/29 00:13:22;;;;;;;7.73;3.70;;;;;;;10.92;79.74;100913.03;2073114;28;20021;-61
2021/05/29 00:14:22;;;;;;;5.43;3.55;;;;;;;10.92;79.68;100918.25;2073293;28;20022;-61
2021/05/29 00:15:22;;;;;;;4.20;3.63;;;;;;;10.90;79.67;100923.47;2073118;28;20022;-61
2021/05/29 00:16:23;;;;;;;4.73;3.50;;;;;;;10.90;79.58;100920.88;2073285;28;20192;-61
2021/05/29 00:17:23;;;;;;;5.00;3.67;;;;;;;10.87;80.09;100918.34;2073259;28;20068;-62
2021/05/29 00:18:26;;;;;;;6.53;3.93;;;;;;;10.89;79.19;100920.03;2073088;28;20137;-62
2021/05/29 00:19:26;;;;;;;5.40;3.50;;;;;;;10.87;79.33;100915.72;2067873;28;20483;-61
2021/05/29 00:20:27;;;;;;;3.83;3.37;;;;;;;10.86;79.73;100925.28;2064320;28;20026;-62
2021/05/29 00:21:27;;;;;;;9.30;3.90;;;;;;;10.86;80.23;100927.06;2064721;28;20029;-61
2021/05/29 00:22:27;;;;;;;4.03;3.63;;;;;;;10.84;80.22;100915.78;2064940;28;20037;-62
2021/05/29 00:23:28;;;;;;;5.77;3.23;;;;;;;10.83;80.43;100922.72;2065130;28;20475;-62
2021/05/29 00:24:28;;;;;;;4.13;3.70;;;;;;;10.80;80.34;100916.72;2065076;28;20030;-62
2021/05/29 00:25:28;;;;;;;6.25;3.50;;;;;;;10.80;80.57;100919.31;2065197;28;20053;-61
2021/05/29 00:26:29;;;;;;;7.77;3.80;;;;;;;10.79;80.65;100921.09;2064880;28;20120;-62
2021/05/29 00:27:29;;;;;;;4.27;3.70;;;;;;;10.78;80.47;100921.97;2065188;28;20034;-61
2021/05/29 00:28:29;;;;;;;5.13;3.60;;;;;;;10.78;80.56;100926.31;2064901;28;20040;-62
2021/05/29 00:29:30;;;;;;;5.13;3.80;;;;;;;10.76;80.67;100922.91;2069762;28;20038;-62
2021/05/29 00:30:31;;;;;;;4.85;3.30;;;;;;;10.77;81.17;100928.06;2073131;28;20041;-61
2021/05/29 00:31:31;;;;;;;4.67;3.57;;;;;;;10.72;81.18;100927.31;2072935;28;20030;-61
2021/05/29 00:32:31;;;;;;;6.33;3.30;;;;;;;10.70;81.03;100924.72;2072294;28;20060;-62
2021/05/29 00:33:32;;;;;;;7.73;3.70;;;;;;;10.72;81.12;100922.09;2072473;28;20052;-61
2021/05/29 00:34:32;;;;;;;8.70;3.40;;;;;;;10.71;81.19;100925.59;2073024;28;20498;-61
2021/05/29 00:35:33;;;;;;;3.90;3.50;;;;;;;10.67;81.46;100921.31;2073103;28;20033;-61
2021/05/29 00:36:33;;;;;;;3.90;3.40;;;;;;;10.69;81.72;100927.38;2073022;28;20061;-62
2021/05/29 00:37:34;;;;;;;4.43;3.30;;;;;;;10.69;82.22;100925.59;2073147;28;20034;-62
2021/05/29 00:38:35;;;;;;;;;;;;;;;10.71;81.72;100920.38;2073584;28;20064;-62
2021/05/29 00:39:35;;;;;;;6.10;3.60;;;;;;;10.69;81.54;100914.34;2072463;28;19921;-62
2021/05/29 00:40:36;;;;;;;10.30;3.50;;;;;;;10.70;81.37;100926.50;2073293;28;20026;-61
2021/05/29 00:41:36;;;;;;;5.60;3.13;;;;;;;10.67;81.44;100921.31;2066447;28;20034;-61
2021/05/29 00:42:37;;;;;;;4.47;3.20;;;;;;;10.63;81.70;100917.91;2065057;28;20058;-61
2021/05/29 00:43:37;;;;;;;6.43;3.00;;;;;;;10.62;81.88;100924.00;2065233;28;20033;-62
2021/05/29 00:44:48;;;;;;;4.50;3.23;;;;;;;10.59;81.73;100921.47;2065143;28;20050;-61
2021/05/29 00:45:49;;;;;;;5.45;3.30;;;;;;;10.51;82.17;100924.22;2065189;28;20066;-62
2021/05/29 00:46:50;;;;;;;3.25;2.83;;;;;;;10.51;82.06;100925.97;2065127;28;20026;-62
2021/05/29 00:47:50;;;;;;;5.80;3.60;;;;;;;10.50;82.16;100926.84;2065164;28;20149;-61
2021/05/29 00:48:50;;;;;;;5.90;3.50;;;;;;;10.49;81.52;100918.19;2064914;28;20502;-62
2021/05/29 00:49:52;;;;;;;6.53;3.20;;;;;;;10.49;82.16;100926.00;2065186;28;20037;-61
2021/05/29 00:50:59;;;;;;;5.18;3.67;;;;;;;10.43;82.47;100926.13;2064689;28;20038;-61
2021/05/29 00:51:59;;;;;;;3.70;3.20;;;;;;;10.39;82.58;100929.66;2073005;28;20029;-62
2021/05/29 00:53:00;;;;;;;4.43;3.10;;;;;;;10.37;82.52;100927.09;2072872;28;20021;-61
2021/05/29 00:54:00;;;;;;;4.75;3.22;;;;;;;10.32;82.84;100922.81;2073015;28;20716;-62
2021/05/29 00:55:05;;;;;;;3.30;3.00;;;;;;;10.28;83.28;100925.47;2072809;28;20045;-61
2021/05/29 00:56:06;;;;;;;9.77;3.28;;;;;;;10.22;83.79;100920.38;2073230;28;20026;-61
2021/05/29 00:57:07;;;;;;;4.47;3.28;;;;;;;10.20;84.44;100919.53;2065862;28;20557;-61
2021/05/29 00:58:07;;;;;;;7.30;3.33;;;;;;;10.17;84.52;100923.94;2065176;28;20026;-62
2021/05/29 00:59:08;;;;;;;4.23;3.03;;;;;;;10.12;84.58;100922.25;2065124;28;20025;-61
2021/05/29 01:00:11;;;;;;;4.28;3.60;;;;;;;10.07;84.93;100918.88;2065032;28;20135;-62
2021/05/29 01:01:11;;;;;;;3.78;3.17;;;;;;;10.05;85.45;100919.75;2066001;28;20109;-61
2021/05/29 01:02:15;;;;;;;3.80;3.20;;;;;;;10.00;85.17;100921.59;2072281;28;20022;-62
2021/05/29 01:03:16;;;;;;;6.03;3.25;;;;;;;9.93;85.61;100926.91;2072706;28;20029;-61
2021/05/29 01:04:16;;;;;;;3.83;3.28;;;;;;;9.88;85.88;100913.09;2072726;28;20032;-62
2021/05/29 01:05:18;;;;;;;4.07;3.33;;;;;;;9.86;86.16;100914.84;2067746;28;20023;-62
2021/05/29 01:06:19;;;;;;;8.55;3.33;;;;;;;9.85;85.84;100928.75;2072633;28;20500;-61
2021/05/29 01:07:19;;;;;;;5.43;3.37;;;;;;;9.78;86.04;100925.41;2072227;28;20077;-61
2021/05/29 01:08:24;;;;;;;7.03;3.20;;;;;;;9.79;86.32;100923.66;2072037;28;20379;-61
2021/05/29 01:09:24;;;;;;;4.45;3.78;;;;;;;9.75;86.26;100920.25;2072826;28;20028;-62
2021/05/29 01:10:25;;;;;;;4.00;3.60;;;;;;;9.74;86.53;100915.06;2072933;28;20026;-61
2021/05/29 01:11:25;;;;;;;4.47;3.55;;;;;;;9.72;86.80;100917.69;2069440;28;20077;-62
2021/05/29 01:12:25;;;;;;;7.53;3.63;;;;;;;9.70;86.97;100923.78;2064372;28;20081;-62
2021/05/29 01:13:32;;;;;;;4.00;3.53;;;;;;;9.66;87.01;100923.84;2064847;28;20029;-62
2021/05/29 01:14:33;;;;;;;3.60;3.30;;;;;;;9.62;87.31;100922.16;2064647;28;20030;-61
2021/05/29 01:15:38;;;;;;;4.20;3.42;;;;;;;9.58;87.56;100922.25;2064807;28;20057;-61
2021/05/29 01:17:39;;;;;;;3.90;3.37;;;;;;;9.53;87.59;100921.44;2064300;28;20022;-60
2021/05/29 01:18:39;;;;;;;5.53;3.70;;;;;;;9.51;87.57;100926.66;2066947;28;20048;-61
2021/05/29 01:19:40;;;;;;;4.63;3.80;;;;;;;9.49;87.80;100924.09;2067694;28;20121;-62
2021/05/29 01:20:42;;;;;;;4.03;3.53;;;;;;;9.45;87.75;100934.56;2069650;28;20515;-62
2021/05/29 01:21:42;;;;;;;5.32;3.67;;;;;;;9.43;88.24;100925.91;2066205;28;20038;-62
2021/05/29 01:22:51;;;;;;;4.43;3.83;;;;;;;9.42;88.44;100932.00;2064467;28;20626;-62
2021/05/29 01:23:51;;;;;;;7.28;4.05;;;;;;;9.41;89.04;100932.88;2065717;28;20101;-62
2021/05/29 01:24:52;;;;;;;4.03;3.63;;;;;;;9.37;89.54;100925.97;2065183;28;20022;-62
2021/05/29 01:25:52;;;;;;;4.90;4.00;;;;;;;9.29;89.57;100921.75;2070649;28;20105;-62
2021/05/29 01:26:53;;;;;;;7.50;4.00;;;;;;;9.32;89.89;100929.53;2072581;28;20153;-62
2021/05/29 01:28:11;;;;;;;6.28;3.80;;;;;;;9.27;90.23;100931.31;2072802;28;20029;-62
2021/05/29 01:29:12;;;;;;;9.80;3.97;;;;;;;9.23;90.50;100929.66;2072689;28;20026;-62
2021/05/29 01:30:14;;;;;;;4.68;4.03;;;;;;;9.21;90.40;100931.41;2072883;28;20491;-62
2021/05/29 01:31:14;;;;;;;5.38;3.95;;;;;;;9.17;90.70;100929.72;2072710;28;20032;-62
2021/05/29 01:32:19;;;;;;;5.20;3.70;;;;;;;9.12;90.94;100929.75;2072224;28;20037;-66
2021/05/29 01:33:25;;;;;;;8.07;3.72;;;;;;;9.05;91.27;100932.47;2069496;28;20025;-62
2021/05/29 01:34:29;;;;;;;5.53;4.13;;;;;;;9.02;91.49;100930.75;2072006;28;20025;-62
2021/05/29 01:35:30;;;;;;;5.28;3.60;;;;;;;8.99;91.46;100929.06;2072463;28;20026;-62
2021/05/29 01:36:31;;;;;;;5.85;4.18;;;;;;;8.98;91.31;100929.94;2072440;28;20479;-62
2021/05/29 01:37:31;;;;;;;4.90;4.07;;;;;;;8.94;91.29;100930.00;2072649;28;20057;-62
2021/05/29 01:38:32;;;;;;;6.87;3.97;;;;;;;8.94;91.59;100930.88;2072731;28;20845;-62
2021/05/29 01:39:33;;;;;;;5.03;3.97;;;;;;;8.85;91.36;100933.56;2072637;28;20825;-62
2021/05/29 01:40:33;;;;;;;5.23;4.13;;;;;;;8.83;91.62;100936.19;2072395;28;20084;-62
2021/05/29 01:41:34;;;;;;;6.63;4.10;;;;;;;8.85;91.37;100938.78;2072108;28;20080;-62
2021/05/29 01:42:37;;;;;;;7.38;4.88;;;;;;;8.81;91.39;100937.06;2072547;28;20088;-62
2021/05/29 01:43:40;;;;;;;6.28;4.57;;;;;;;8.90;91.33;100942.16;2072532;28;20066;-62
2021/05/29 01:44:40;;;;;;;9.50;4.78;;;;;;;8.93;90.53;100931.75;2072614;28;20104;-62
2021/05/29 01:45:42;;;;;;;5.13;4.60;;;;;;;8.90;90.39;100936.97;2072527;28;20061;-62
2021/05/29 01:46:42;;;;;;;6.53;5.10;;;;;;;8.88;90.23;100933.53;2069878;28;20569;-62
2021/05/29 01:47:45;;;;;;;8.27;4.63;;;;;;;8.92;89.65;100940.41;2064574;28;20026;-62
2021/05/29 01:48:48;;;;;;;6.75;4.75;;;;;;;8.87;89.64;100935.28;2065404;28;20026;-62
2021/05/29 01:49:48;;;;;;;6.13;4.90;;;;;;;8.92;89.57;100936.94;2072619;28;20075;-62
2021/05/29 01:50:51;;;;;;;6.03;4.70;;;;;;;9.00;88.53;100942.94;2072513;28;20033;-62
2021/05/29 01:51:51;;;;;;;7.55;4.80;;;;;;;9.09;87.61;100941.94;2072004;28;20029;-62
2021/05/29 01:52:58;;;;;;;7.13;5.40;;;;;;;9.08;87.34;100948.03;2072313;28;20042;-62
2021/05/29 01:53:58;;;;;;;7.70;4.85;;;;;;;9.21;86.38;100947.00;2072410;28;20894;-62
2021/05/29 01:54:59;;;;;;;8.70;5.03;;;;;;;9.13;86.81;100944.50;2072521;28;20038;-62
2021/05/29 01:56:00;;;;;;;9.80;4.97;;;;;;;9.15;86.55;100947.09;2072491;28;20026;-62
2021/05/29 01:57:00;;;;;;;7.50;4.90;;;;;;;9.14;86.56;100953.16;2072371;28;20091;-62
2021/05/29 01:58:02;;;;;;;7.37;4.87;;;;;;;9.09;87.21;100936.75;2070999;28;20394;-62
2021/05/29 01:59:02;;;;;;;6.32;4.50;;;;;;;9.10;87.53;100939.34;2072686;28;20029;-62
2021/05/29 02:00:04;;;;;;;5.37;4.53;;;;;;;9.15;87.54;100942.75;2072589;28;20542;-62
2021/05/29 02:01:06;;;;;;;11.07;4.85;;;;;;;9.18;87.57;100944.44;2072308;28;20025;-62
2021/05/29 02:02:06;;;;;;;7.15;4.53;;;;;;;9.13;87.85;100936.69;2071904;28;20060;-61
2021/05/29 02:03:07;;;;;;;6.37;4.67;;;;;;;9.16;88.10;100938.41;2072249;28;20052;-62
2021/05/29 02:04:07;;;;;;;6.80;4.40;;;;;;;9.16;88.13;100936.66;2072322;28;20498;-62
2021/05/29 02:05:14;;;;;;;4.57;4.10;;;;;;;9.14;88.12;100934.97;2068159;28;20030;-62
2021/05/29 02:06:15;;;;;;;5.60;4.53;;;;;;;9.08;88.39;100935.03;2072094;28;20601;-62
2021/05/29 02:07:15;;;;;;;7.40;4.68;;;;;;;9.02;88.64;100936.84;2072422;28;20042;-62
2021/05/29 02:08:16;;;;;;;5.57;4.43;;;;;;;9.00;89.30;100943.78;2072148;28;20060;-62
2021/05/29 02:09:16;;;;;;;7.93;5.07;;;;;;;8.97;89.33;100951.63;2072647;28;20080;-62
2021/05/29 02:10:20;;;;;;;6.40;5.30;;;;;;;8.93;89.33;100946.47;2072621;28;20049;-62
2021/05/29 02:11:20;;;;;;;5.78;5.10;;;;;;;8.97;89.44;100953.38;2072605;28;20048;-62
2021/05/29 02:12:20;;;;;;;5.23;4.73;;;;;;;8.95;89.71;100945.59;2071925;28;20026;-62
2021/05/29 02:13:23;;;;;;;5.80;4.67;;;;;;;8.90;89.74;100944.78;2072387;28;20065;-63
2021/05/29 02:14:23;;;;;;;6.80;4.65;;;;;;;8.86;89.90;100937.91;2072476;28;20034;-62
2021/05/29 02:15:27;;;;;;;5.53;4.90;;;;;;;8.83;90.18;100945.72;2072289;28;20026;-63
2021/05/29 02:16:27;;;;;;;8.27;5.18;;;;;;;8.82;89.74;100944.00;2072408;28;20029;-63
2021/05/29 02:17:28;;;;;;;7.40;4.87;;;;;;;8.73;89.84;100944.94;2071060;28;20455;-63
2021/05/29 02:18:29;;;;;;;8.93;4.80;;;;;;;8.68;90.04;100947.59;2063930;28;20105;-63
2021/05/29 02:19:29;;;;;;;6.47;4.78;;;;;;;8.62;90.50;100947.66;2063937;28;20018;-63
2021/05/29 02:21:09;;;;;;;7.50;4.80;;;;;;;8.61;90.22;100945.94;2063710;28;20037;-63
2021/05/29 02:22:10;;;;;;;7.75;5.43;;;;;;;8.57;90.34;100939.06;2046652;29;20067;-63
2021/05/29 02:23:13;;;;;;;9.33;5.53;;;;;;;8.55;90.50;100930.44;2046759;28;20086;-63
2021/05/29 02:24:13;;;;;;;7.50;6.00;;;;;;;8.56;90.51;100934.75;2049626;28;20034;-61
2021/05/29 02:25:14;;;;;;;5.93;4.97;;;;;;;8.61;90.13;100934.69;2063117;28;20550;-62
2021/05/29 02:26:17;;;;;;;7.40;5.57;;;;;;;8.59;90.27;100932.09;2071060;28;20053;-62
2021/05/29 02:27:17;;;;;;;6.15;5.25;;;;;;;8.54;90.20;100933.91;2072286;28;20065;-64
2021/05/29 02:28:18;;;;;;;8.70;5.73;;;;;;;8.53;90.41;100932.19;2072418;28;20029;-63
2021/05/29 02:29:18;;;;;;;10.13;5.65;;;;;;;8.54;90.66;100931.31;2071386;28;20068;-63
2021/05/29 02:30:19;;;;;;;7.67;5.23;;;;;;;8.52;90.39;100933.03;2072415;28;20067;-63
2021/05/29 02:31:20;;;;;;;6.15;5.38;;;;;;;8.48;90.45;100933.94;2072257;28;20164;-63
2021/05/29 02:32:20;;;;;;;6.88;5.65;;;;;;;8.47;90.31;100935.69;2071872;28;20026;-63
2021/05/29 02:33:22;;;;;;;9.63;6.10;;;;;;;8.48;90.35;100936.53;2071829;28;20387;-62
2021/05/29 02:34:22;;;;;;;9.40;5.63;;;;;;;8.45;90.52;100941.75;2071573;28;20331;-61
2021/05/29 02:35:22;;;;;;;7.60;5.30;;;;;;;8.39;90.50;100940.91;2071922;28;20080;-62
2021/05/29 02:36:23;;;;;;;10.20;5.80;;;;;;;8.38;90.56;100946.13;2072214;28;20022;-62
2021/05/29 02:37:23;;;;;;;10.60;5.53;;;;;;;8.34;90.68;100952.22;2072188;28;20036;-62
2021/05/29 02:38:25;;;;;;;8.50;5.73;;;;;;;8.37;90.92;100955.69;2072416;28;20375;-62
2021/05/29 02:39:25;;;;;;;10.30;5.85;;;;;;;8.34;90.75;100947.03;2072158;28;20022;-62
2021/05/29 02:40:26;;;;;;;10.90;6.13;;;;;;;8.30;90.91;100955.75;2072315;28;20145;-62
2021/05/29 02:41:26;;;;;;;9.20;5.72;;;;;;;8.26;91.30;100957.50;2072209;28;20624;-61
2021/05/29 02:42:26;;;;;;;8.50;5.90;;;;;;;8.25;91.51;100958.38;2071806;28;20048;-62
2021/05/29 02:43:27;;;;;;;8.53;6.53;;;;;;;8.21;91.43;100952.34;2071851;28;20044;-61
2021/05/29 02:44:27;;;;;;;8.73;6.27;;;;;;;8.17;91.59;100949.78;2065776;28;20092;-62
2021/05/29 02:45:28;;;;;;;10.00;6.13;;;;;;;8.17;91.62;100949.78;2063862;28;20423;-61
2021/05/29 02:46:29;;;;;;;9.38;6.25;;;;;;;8.12;91.58;100952.44;2064316;28;20022;-62
2021/05/29 02:47:29;;;;;;;7.70;5.80;;;;;;;8.10;91.54;100949.81;2063997;28;20421;-61
2021/05/29 02:48:29;;;;;;;8.83;6.10;;;;;;;8.08;91.62;100945.53;2064226;28;20060;-62
2021/05/29 02:49:30;;;;;;;8.87;6.20;;;;;;;8.07;91.96;100944.69;2064061;28;20030;-62
2021/05/29 02:50:30;;;;;;;7.97;5.70;;;;;;;8.07;92.10;100947.28;2064064;28;20034;-62
2021/05/29 02:51:30;;;;;;;9.13;5.57;;;;;;;7.99;92.03;100950.78;2063494;28;20568;-64
2021/05/29 02:52:32;;;;;;;12.00;6.13;;;;;;;7.94;91.75;100953.41;2063876;28;20053;-63
2021/05/29 02:53:32;;;;;;;6.88;5.90;;;;;;;7.94;92.13;100948.22;2063714;28;20069;-63
2021/05/29 02:54:34;;;;;;;9.35;6.30;;;;;;;7.86;92.14;100947.44;2065062;28;20049;-63
2021/05/29 02:55:34;;;;;;;8.10;5.95;;;;;;;7.81;92.46;100951.78;2064029;28;20026;-63
2021/05/29 02:56:35;;;;;;;8.57;6.35;;;;;;;7.83;92.57;100955.22;2063879;28;20447;-63
2021/05/29 02:57:35;;;;;;;7.10;6.20;;;;;;;7.81;92.95;100956.97;2071389;28;20576;-63
2021/05/29 02:58:36;;;;;;;9.60;5.95;;;;;;;7.78;92.87;100950.06;2071492;28;20026;-63
2021/05/29 02:59:37;;;;;;;8.40;6.67;;;;;;;7.74;93.29;100959.59;2063963;28;20072;-63
2021/05/29 03:00:45;;;;;;;7.47;6.43;;;;;;;7.70;93.46;100955.28;2063855;28;20030;-63
2021/05/29 03:01:46;;;;;;;7.45;6.07;;;;;;;7.67;93.80;100954.44;2063630;28;20041;-63
2021/05/29 03:02:46;;;;;;;8.17;6.73;;;;;;;7.71;94.01;100953.56;2063634;28;20029;-64
2021/05/29 03:03:47;;;;;;;9.32;6.13;;;;;;;7.70;94.16;100960.47;2070563;28;20040;-64
2021/05/29 03:04:47;;;;;;;8.83;6.17;;;;;;;7.67;94.11;100957.94;2070204;28;20033;-63
2021/05/29 03:05:48;;;;;;;7.97;6.33;;;;;;;7.60;94.21;100957.09;2068150;28;20026;-63
2021/05/29 03:06:48;;;;;;;10.68;6.85;;;;;;;7.57;94.10;100961.44;2071812;28;20080;-64
2021/05/29 03:07:51;;;;;;;7.70;6.43;;;;;;;7.56;94.12;100957.13;2072052;28;20088;-63
2021/05/29 03:08:51;;;;;;;8.20;7.05;;;;;;;7.51;94.29;100956.28;2071929;28;20490;-63
2021/05/29 03:09:52;;;;;;;8.83;6.80;;;;;;;7.47;94.24;100961.50;2072110;28;20033;-63
2021/05/29 03:10:53;;;;;;;7.27;6.33;;;;;;;7.48;94.46;100955.44;2071500;28;20038;-63
2021/05/29 03:11:54;;;;;;;9.95;7.00;;;;;;;7.49;94.52;100961.47;2063713;28;20045;-63
2021/05/29 03:12:54;;;;;;;9.07;6.93;;;;;;;7.46;94.65;100967.56;2063578;28;20599;-63
2021/05/29 03:13:55;;;;;;;9.07;7.23;;;;;;;7.42;95.03;100971.00;2063734;28;20408;-64
2021/05/29 03:14:55;;;;;;;8.43;6.90;;;;;;;7.37;95.23;100972.78;2063663;28;20262;-63
2021/05/29 03:15:56;;;;;;;9.00;7.07;;;;;;;7.38;95.34;100969.31;2063706;28;20518;-63
2021/05/29 03:16:56;;;;;;;10.40;7.00;;;;;;;7.42;95.19;100968.41;2063601;28;20038;-63
2021/05/29 03:17:58;;;;;;;8.50;6.90;;;;;;;7.38;95.25;100977.09;2063714;28;20026;-63
2021/05/29 03:18:58;;;;;;;7.88;7.15;;;;;;;7.35;95.38;100974.50;2063597;28;20026;-63
2021/05/29 03:19:59;;;;;;;8.70;6.87;;;;;;;7.31;95.36;100973.66;2063749;28;20060;-63
2021/05/29 03:20:59;;;;;;;9.30;6.73;;;;;;;7.30;95.34;100965.88;2063665;28;20483;-63
2021/05/29 03:21:59;;;;;;;8.87;6.80;;;;;;;7.34;95.49;100971.94;2070069;28;20103;-63
2021/05/29 03:23:00;;;;;;;8.30;6.77;;;;;;;7.38;95.61;100968.44;2071369;28;20056;-63
2021/05/29 03:24:00;;;;;;;10.00;6.90;;;;;;;7.37;95.44;100972.78;2071543;28;20036;-63
2021/05/29 03:25:01;;;;;;;8.53;7.10;;;;;;;7.37;95.52;100977.09;2069661;28;20034;-63
2021/05/29 03:26:01;;;;;;;10.70;6.80;;;;;;;7.28;95.29;100971.06;2071559;28;20490;-64
2021/05/29 03:27:01;;;;;;;7.87;7.00;;;;;;;7.32;95.43;100977.09;2071831;28;20053;-64
2021/05/29 03:28:02;;;;;;;8.67;7.27;;;;;;;7.28;95.38;100978.00;2071682;28;20083;-63
2021/05/29 03:29:04;;;;;;;10.68;6.63;;;;;;;7.27;95.45;100977.13;2071790;28;20462;-64
2021/05/29 03:30:07;;;;;;;10.00;6.70;;;;;;;7.22;95.25;100980.59;2071609;28;20044;-64
2021/05/29 03:31:08;;;;;;;8.73;6.82;;;;;;;7.19;95.33;100983.22;2071477;28;20053;-64
2021/05/29 03:32:08;;;;;;;9.97;7.10;;;;;;;7.16;95.26;100984.09;2063050;28;20034;-63
2021/05/29 03:33:11;;;;;;;10.40;7.17;;;;;;;7.19;95.44;100988.41;2065165;28;20032;-63
2021/05/29 03:34:11;;;;;;;9.25;7.25;;;;;;;7.14;95.38;100997.06;2071361;28;20064;-64
2021/05/29 03:35:12;;;;;;;7.83;7.13;;;;;;;7.14;95.34;100991.88;2071163;28;20424;-63
2021/05/29 03:36:13;;;;;;;10.82;6.97;;;;;;;7.09;95.31;100988.44;2071299;28;20022;-63
2021/05/29 03:37:13;;;;;;;8.00;7.20;;;;;;;7.10;95.30;100994.47;2071905;28;20037;-62
2021/05/29 03:38:13;;;;;;;9.43;7.13;;;;;;;7.10;95.43;100994.47;2071743;28;20471;-62
2021/05/29 03:39:14;;;;;;;10.97;7.17;;;;;;;7.11;95.49;100985.84;2071329;28;20057;-62
2021/05/29 03:40:15;;;;;;;9.93;7.10;;;;;;;7.11;95.51;100991.88;2068950;28;20802;-62
2021/05/29 03:41:16;;;;;;;11.88;6.50;;;;;;;7.09;95.34;100993.63;2068401;28;20040;-62
2021/05/29 03:42:16;;;;;;;9.53;6.70;;;;;;;7.07;95.21;100984.13;2062986;28;20026;-62
2021/05/29 03:43:16;;;;;;;10.90;7.63;;;;;;;7.06;95.42;100991.03;2064672;28;20110;-62
2021/05/29 03:44:17;;;;;;;8.00;7.07;;;;;;;7.03;95.38;100988.44;2071439;28;20025;-63
2021/05/29 03:45:19;;;;;;;9.77;7.13;;;;;;;7.06;95.38;100992.75;2071039;28;20022;-62
2021/05/29 03:46:19;;;;;;;8.52;6.38;;;;;;;7.06;95.33;100993.63;2071049;28;20747;-62
2021/05/29 03:47:19;;;;;;;9.33;7.37;;;;;;;7.09;95.11;100996.22;2071303;28;20026;-62
2021/05/29 03:48:20;;;;;;;8.40;7.50;;;;;;;7.12;95.08;100996.19;2063678;28;20022;-62
2021/05/29 03:49:20;;;;;;;10.90;7.60;;;;;;;7.12;95.17;100995.34;2064035;28;20376;-62
2021/05/29 03:50:24;;;;;;;12.43;7.67;;;;;;;7.15;95.14;101003.97;2063769;28;20468;-62
2021/05/29 03:51:24;;;;;;;9.45;7.80;;;;;;;7.31;94.85;101001.31;2063701;28;20486;-61
2021/05/29 03:52:25;;;;;;;7.97;6.90;;;;;;;7.90;92.34;100998.41;2069307;28;20061;-71
2021/05/29 03:53:25;;;;;;;10.53;7.13;;;;;;;8.60;89.08;100988.38;2071376;28;20030;-61
2021/05/29 03:54:26;;;;;;;7.37;6.37;;;;;;;9.24;86.18;100993.78;2068253;28;20030;-62
2021/05/29 03:55:26;;;;;;;6.87;6.13;;;;;;;9.63;83.80;100985.47;2067494;28;20523;-62
2021/05/29 03:56:26;;;;;;;13.20;10.40;;;;;;;9.95;81.70;100979.81;2064775;28;20034;-63
2021/05/29 03:57:27;;;;;;;13.93;9.70;;;;;;;10.06;80.17;100984.00;2071752;28;20033;-62
2021/05/29 03:58:27;;;;;;;10.43;8.63;;;;;;;10.06;80.28;100989.19;2071563;28;20076;-62
2021/05/29 03:59:27;;;;;;;12.50;6.20;;;;;;;10.18;79.40;100989.00;2071703;28;20057;-62
2021/05/29 04:00:29;;;;;;;9.37;5.30;;;;;;;10.52;77.24;100992.84;2069860;28;20034;-62
2021/05/29 04:01:30;;;;;;;9.05;4.70;;;;;;;10.79;76.17;100999.31;2070087;28;20490;-61
2021/05/29 04:02:30;;;;;;;;;;;;;;;10.80;75.86;101000.16;2070695;28;20030;-61
2021/05/29 04:03:31;;;;;;;7.28;4.85;;;;;;;10.36;76.40;100995.69;2070903;28;19913;-62
2021/05/29 04:04:31;;;;;;;7.50;4.83;;;;;;;9.94;78.03;100998.91;2070807;28;20526;-62
2021/05/29 04:05:31;;;;;;;7.70;4.80;;;;;;;9.50;79.70;101000.41;2064442;28;20702;-63
2021/05/29 04:06:32;;;;;;;6.43;4.77;;;;;;;9.13;81.38;101003.47;2071314;28;20029;-63
2021/05/29 04:07:33;;;;;;;8.17;5.30;;;;;;;9.05;82.01;100998.34;2071562;28;20092;-63
2021/05/29 04:08:33;;;;;;;6.28;5.03;;;;;;;8.90;82.36;101001.97;2071661;28;20121;-63
2021/05/29 04:09:33;;;;;;;6.57;5.43;;;;;;;8.80;82.82;101005.53;2071376;28;20038;-64
2021/05/29 04:10:36;;;;;;;6.17;5.27;;;;;;;8.66;83.66;100997.88;2070752;28;20372;-63
2021/05/29 04:11:36;;;;;;;7.88;5.10;;;;;;;8.53;84.87;101010.13;2071286;28;20056;-64
2021/05/29 04:12:37;;;;;;;8.17;5.37;;;;;;;8.45;84.86;101002.34;2071638;28;20048;-63
2021/05/29 04:13:38;;;;;;;9.20;5.35;;;;;;;8.35;85.19;101005.91;2071432;28;20024;-63
2021/05/29 04:14:38;;;;;;;9.77;5.40;;;;;;;8.27;85.49;100998.19;2071705;28;20037;-63
2021/05/29 04:15:39;;;;;;;8.07;5.93;;;;;;;8.02;87.00;100995.75;2069363;28;20030;-63
2021/05/29 04:16:39;;;;;;;6.60;5.85;;;;;;;8.10;86.83;100996.56;2063460;28;20061;-63
2021/05/29 04:17:40;;;;;;;9.93;5.90;;;;;;;8.11;87.12;100992.25;2063514;28;20039;-63
2021/05/29 04:18:41;;;;;;;;;;;;;;;8.09;87.05;100997.44;2064002;28;20034;-62
2021/05/29 04:19:41;;;;;;;8.60;5.68;;;;;;;8.12;87.23;101003.47;2063406;28;20470;-63
2021/05/29 04:20:41;;;;;;;8.73;6.00;;;;;;;8.08;87.46;100997.44;2063559;28;20026;-64
2021/05/29 04:21:42;;;;;;;8.27;6.60;;;;;;;8.09;87.57;100999.19;2062973;28;20422;-63
2021/05/29 04:22:42;;;;;;;8.73;5.73;;;;;;;8.10;87.64;101001.75;2063443;28;20638;-63
2021/05/29 04:23:43;;;;;;;6.30;5.50;;;;;;;8.08;87.42;101005.25;2063258;28;20057;-63
2021/05/29 04:24:44;;;;;;;9.67;6.03;;;;;;;8.03;87.65;101005.28;2062530;28;20030;-63
2021/05/29 04:25:44;;;;;;;7.32;6.00;;;;;;;8.05;87.71;101006.13;2065587;28;20037;-62
2021/05/29 04:26:45;;;;;;;7.07;5.70;;;;;;;8.08;87.98;101011.28;2071471;28;20126;-62
2021/05/29 04:27:46;;;;;;;8.17;6.03;;;;;;;8.03;87.67;101005.28;2071434;28;20698;-62
2021/05/29 04:28:47;;;;;;;8.20;6.13;;;;;;;8.05;87.89;101013.03;2070799;28;20029;-62
2021/05/29 04:29:48;;;;;;;7.72;5.97;;;;;;;8.09;88.08;101012.16;2070748;28;20037;-62
2021/05/29 04:30:48;;;;;;;9.40;5.97;;;;;;;8.12;87.72;101013.88;2071274;28;20030;-62
2021/05/29 04:31:48;;;;;;;8.60;6.13;;;;;;;8.13;87.83;101013.00;2070763;28;20116;-62
2021/05/29 04:32:49;;;;;;;10.40;5.90;;;;;;;8.17;87.65;101012.13;2070532;28;20385;-62
2021/05/29 04:33:49;;;;;;;10.77;6.55;;;;;;;8.22;87.81;101011.22;2071212;28;20563;-62
2021/05/29 04:34:50;;;;;;;10.07;5.50;;;;;;;8.23;87.25;101015.50;2070347;28;20037;-63
2021/05/29 04:35:50;;;;;;;7.93;5.90;;;;;;;8.25;87.53;101016.34;2067313;28;20025;-63
2021/05/29 04:36:50;;;;;;;7.43;5.87;;;;;;;8.30;87.01;101013.72;2062860;28;20394;-64
2021/05/29 04:37:51;;;;;;;7.07;6.00;;;;;;;8.36;87.33;101018.91;2062809;28;20035;-64
2021/05/29 04:38:51;;;;;;;6.82;5.95;;;;;;;8.38;87.36;101017.13;2061989;28;20034;-63
2021/05/29 04:39:52;;;;;;;6.30;5.70;;;;;;;8.41;87.48;101013.66;2063591;28;20353;-63
2021/05/29 04:40:53;;;;;;;10.17;5.87;;;;;;;8.46;87.00;101014.47;2062562;28;20265;-62
2021/05/29 04:41:53;;;;;;;7.93;6.10;;;;;;;8.49;87.02;101013.59;2062719;28;20530;-62
2021/05/29 04:42:54;;;;;;;11.00;6.63;;;;;;;8.52;87.19;101008.38;2062280;28;20030;-62
2021/05/29 04:43:55;;;;;;;6.50;5.72;;;;;;;8.59;87.02;101012.66;2062439;28;20030;-62
2021/05/29 04:44:55;;;;;;;8.73;5.70;;;;;;;8.63;86.94;101014.34;2063359;28;20046;-62
2021/05/29 04:45:55;;;;;;;7.93;5.63;;;;;;;8.66;86.40;101011.75;2066071;28;20096;-62
2021/05/29 04:47:00;;;;;;;8.93;6.13;;;;;;;8.70;86.46;101012.56;2070823;28;20030;-62
2021/05/29 04:48:00;;;;;;;7.50;5.72;;;;;;;8.69;86.81;101016.88;2071789;28;20030;-62